createdAt,value
2023-04-19T00:00:12.778Z,9.50
2023-04-19T00:02:42.888Z,9.50
2023-04-19T00:05:12.070Z,9.60
2023-04-19T00:07:39.190Z,9.50
2023-04-19T00:10:07.560Z,9.50
2023-04-19T00:12:34.472Z,9.50
2023-04-19T00:15:01.392Z,9.50
2023-04-19T00:17:29.111Z,9.50
2023-04-19T00:19:56.826Z,9.50
2023-04-19T00:22:23.798Z,9.50
2023-04-19T00:24:50.902Z,9.50
2023-04-19T00:27:17.815Z,9.50
2023-04-19T00:29:44.781Z,9.50
2023-04-19T00:32:11.774Z,9.60
2023-04-19T00:34:38.757Z,9.50
2023-04-19T00:37:05.677Z,9.50
2023-04-19T00:39:32.766Z,9.50
2023-04-19T00:41:59.741Z,9.50
2023-04-19T00:44:26.765Z,9.50
2023-04-19T00:46:54.319Z,9.50
2023-04-19T00:49:24.173Z,9.50
2023-04-19T00:51:51.847Z,9.40
2023-04-19T00:54:20.224Z,9.40
2023-04-19T00:56:47.599Z,9.50
2023-04-19T00:59:16.280Z,9.50
2023-04-19T01:01:43.216Z,9.40
2023-04-19T01:04:10.486Z,9.50
2023-04-19T01:06:41.132Z,9.50
2023-04-19T01:09:08.574Z,9.50
2023-04-19T01:11:35.637Z,9.40
2023-04-19T01:14:02.552Z,9.30
2023-04-19T01:16:29.438Z,9.30
2023-04-19T01:18:56.995Z,9.30
2023-04-19T01:21:23.883Z,9.20
2023-04-19T01:23:50.810Z,9.20
2023-04-19T01:26:19.395Z,9.10
2023-04-19T01:28:46.286Z,9.10
2023-04-19T01:31:13.274Z,9.10
2023-04-19T01:33:40.128Z,9.10
2023-04-19T01:36:07.854Z,9.00
2023-04-19T01:38:35.265Z,8.90
2023-04-19T01:41:02.178Z,8.80
2023-04-19T01:43:28.996Z,8.70
2023-04-19T01:45:55.819Z,8.60
2023-04-19T01:48:22.782Z,8.50
2023-04-19T01:50:49.616Z,8.60
2023-04-19T01:53:16.465Z,8.50
2023-04-19T01:55:43.744Z,8.60
2023-04-19T01:58:10.568Z,8.60
2023-04-19T02:00:37.446Z,8.60
2023-04-19T02:03:06.331Z,8.70
2023-04-19T02:05:33.208Z,8.70
2023-04-19T02:08:01.489Z,8.80
2023-04-19T02:10:28.430Z,8.90
2023-04-19T02:12:55.357Z,8.90
2023-04-19T02:15:22.389Z,9.00
2023-04-19T02:17:49.515Z,9.10
2023-04-19T02:20:16.501Z,9.00
2023-04-19T02:22:44.018Z,9.10
2023-04-19T02:25:10.959Z,9.10
2023-04-19T02:27:37.844Z,9.20
2023-04-19T02:30:05.513Z,9.20
2023-04-19T02:32:32.633Z,9.30
2023-04-19T02:34:59.533Z,9.30
2023-04-19T02:37:26.415Z,9.60
2023-04-19T02:39:53.294Z,9.40
2023-04-19T02:42:20.262Z,9.40
2023-04-19T02:44:47.087Z,9.40
2023-04-19T02:47:14.036Z,9.40
2023-04-19T02:49:41.581Z,9.40
2023-04-19T02:52:09.005Z,9.40
2023-04-19T02:54:35.929Z,9.50
2023-04-19T02:57:02.809Z,9.30
2023-04-19T02:59:29.608Z,9.30
2023-04-19T03:01:56.640Z,9.20
2023-04-19T03:04:23.962Z,9.20
2023-04-19T03:06:53.399Z,9.20
2023-04-19T03:09:20.372Z,9.10
2023-04-19T03:11:47.396Z,9.20
2023-04-19T03:14:14.672Z,9.10
2023-04-19T03:16:41.786Z,9.10
2023-04-19T03:19:08.652Z,9.10
2023-04-19T03:21:35.557Z,9.10
2023-04-19T03:24:02.758Z,9.10
2023-04-19T03:26:29.568Z,9.00
2023-04-19T03:28:56.447Z,9.00
2023-04-19T03:31:23.456Z,9.00
2023-04-19T03:33:50.894Z,9.10
2023-04-19T03:36:17.805Z,9.10
2023-04-19T03:38:44.735Z,9.10
2023-04-19T03:41:21.286Z,9.10
2023-04-19T03:43:48.237Z,9.10
2023-04-19T03:46:15.436Z,9.10
2023-04-19T03:48:42.420Z,9.00
2023-04-19T03:51:09.601Z,9.00
2023-04-19T03:53:36.858Z,8.90
2023-04-19T03:56:04.006Z,8.90
2023-04-19T03:58:30.849Z,8.90
2023-04-19T04:00:59.623Z,8.90
2023-04-19T04:03:26.775Z,8.90
2023-04-19T04:05:53.802Z,8.90
2023-04-19T04:08:20.752Z,8.90
2023-04-19T04:10:47.605Z,8.90
2023-04-19T04:13:14.448Z,9.00
2023-04-19T04:15:41.324Z,9.00
2023-04-19T04:18:09.244Z,9.00
2023-04-19T04:20:36.386Z,9.00
2023-04-19T04:23:03.321Z,9.10
2023-04-19T04:25:33.043Z,9.10
2023-04-19T04:28:00.219Z,9.10
2023-04-19T04:30:28.791Z,9.20
2023-04-19T04:32:58.029Z,9.10
2023-04-19T04:35:26.189Z,9.30
2023-04-19T04:37:55.747Z,9.00
2023-04-19T04:40:23.162Z,9.00
2023-04-19T04:42:52.870Z,9.00
2023-04-19T04:45:19.941Z,9.00
2023-04-19T04:47:47.333Z,8.90
2023-04-19T04:50:14.381Z,8.90
2023-04-19T04:52:41.504Z,9.00
2023-04-19T04:55:09.473Z,9.00
2023-04-19T04:57:36.361Z,9.00
2023-04-19T05:00:06.452Z,9.00
2023-04-19T05:02:33.452Z,9.10
2023-04-19T05:05:00.552Z,9.00
2023-04-19T05:07:27.409Z,9.10
2023-04-19T05:09:54.309Z,9.10
2023-04-19T05:12:21.151Z,9.10
2023-04-19T05:14:48.011Z,9.10
2023-04-19T05:17:15.028Z,9.10
2023-04-19T05:19:44.899Z,9.10
2023-04-19T05:22:11.887Z,9.10
2023-04-19T05:24:40.095Z,9.10
2023-04-19T05:27:09.721Z,9.30
2023-04-19T05:29:36.808Z,9.10
2023-04-19T05:32:03.761Z,9.10
2023-04-19T05:34:30.703Z,9.10
2023-04-19T05:36:57.568Z,9.00
2023-04-19T05:39:24.451Z,9.00
2023-04-19T05:41:51.368Z,9.00
2023-04-19T05:44:18.286Z,9.00
2023-04-19T05:46:45.231Z,8.90
2023-04-19T05:49:12.194Z,8.90
2023-04-19T05:51:39.099Z,9.00
2023-04-19T05:54:06.204Z,9.00
2023-04-19T05:56:33.057Z,9.00
2023-04-19T05:59:01.060Z,9.00
2023-04-19T06:01:28.032Z,9.00
2023-04-19T06:03:55.036Z,9.00
2023-04-19T06:06:23.749Z,9.00
2023-04-19T06:08:53.332Z,9.00
2023-04-19T06:11:28.741Z,9.00
2023-04-19T06:14:01.988Z,9.00
2023-04-19T06:16:28.999Z,9.00
2023-04-19T06:18:56.643Z,9.00
2023-04-19T06:21:23.645Z,9.20
2023-04-19T06:23:50.621Z,9.10
2023-04-19T06:26:17.482Z,9.10
2023-04-19T06:28:44.365Z,9.10
2023-04-19T06:31:12.269Z,9.30
2023-04-19T06:33:39.276Z,9.50
2023-04-19T06:36:06.647Z,10.40
2023-04-19T06:38:33.559Z,11.80
2023-04-19T06:41:00.519Z,13.50
2023-04-19T06:43:27.515Z,14.80
2023-04-19T06:46:07.349Z,15.30
2023-04-19T06:48:35.508Z,15.90
2023-04-19T06:51:02.550Z,16.60
2023-04-19T06:53:29.495Z,17.20
2023-04-19T06:56:03.056Z,17.70
2023-04-19T06:58:32.803Z,18.00
2023-04-19T07:01:03.255Z,18.20
2023-04-19T07:03:30.277Z,18.10
2023-04-19T07:05:57.374Z,17.30
2023-04-19T07:08:32.222Z,16.90
2023-04-19T07:11:06.004Z,17.20
2023-04-19T07:13:32.950Z,17.60
2023-04-19T07:16:00.027Z,18.00
2023-04-19T07:18:27.302Z,18.40
2023-04-19T07:20:54.185Z,18.90
2023-04-19T07:23:21.089Z,19.70
2023-04-19T07:25:47.878Z,20.30
2023-04-19T07:28:16.026Z,20.80
2023-04-19T07:30:46.009Z,20.90
2023-04-19T07:33:13.142Z,21.00
2023-04-19T07:35:40.424Z,21.10
2023-04-19T07:38:07.388Z,21.10
2023-04-19T07:40:34.274Z,20.70
2023-04-19T07:43:01.117Z,20.00
2023-04-19T07:45:30.052Z,19.20
2023-04-19T07:47:56.934Z,19.30
2023-04-19T07:50:26.724Z,18.40
2023-04-19T07:52:53.865Z,17.00
2023-04-19T07:55:21.205Z,16.00
2023-04-19T07:57:49.100Z,15.40
2023-04-19T08:00:18.123Z,15.90
2023-04-19T08:02:46.256Z,16.40
2023-04-19T08:05:17.929Z,17.10
2023-04-19T08:07:45.907Z,18.20
2023-04-19T08:10:13.137Z,17.60
2023-04-19T08:12:50.406Z,18.00
2023-04-19T08:16:04.968Z,18.50
2023-04-19T08:18:11.170Z,18.70
2023-04-19T08:20:38.261Z,19.40
2023-04-19T08:23:18.078Z,19.10
2023-04-19T08:25:48.380Z,18.90
2023-04-19T08:28:15.504Z,19.30
2023-04-19T08:30:42.479Z,19.50
2023-04-19T08:33:09.605Z,19.60
2023-04-19T08:35:38.770Z,19.70
2023-04-19T08:38:05.721Z,19.70
2023-04-19T08:40:32.985Z,19.50
2023-04-19T08:43:06.830Z,19.90
2023-04-19T08:45:34.591Z,19.80
2023-04-19T08:48:04.080Z,19.40
2023-04-19T08:50:36.003Z,19.30
2023-04-19T08:55:59.047Z,17.40
2023-04-19T08:58:45.780Z,17.10
2023-04-19T09:01:31.026Z,16.90
2023-04-19T09:04:10.255Z,17.60
2023-04-19T09:06:48.715Z,17.70
2023-04-19T09:12:00.836Z,17.90
2023-04-19T09:14:29.395Z,18.20
2023-04-19T09:17:17.572Z,18.90
2023-04-19T09:19:49.914Z,19.90
2023-04-19T09:22:18.000Z,21.00
2023-04-19T09:25:24.006Z,21.30
2023-04-19T09:27:35.324Z,22.00
2023-04-19T09:30:05.577Z,22.40
2023-04-19T09:32:48.173Z,22.40
2023-04-19T09:35:15.458Z,22.00
2023-04-19T09:40:25.718Z,20.30
2023-04-19T09:48:09.821Z,17.90
2023-04-19T09:50:58.581Z,18.40
2023-04-19T09:53:34.011Z,18.40
2023-04-19T09:56:03.369Z,18.40
2023-04-19T09:58:42.454Z,18.30
2023-04-19T10:01:18.946Z,18.50
2023-04-19T10:03:51.003Z,18.80
2023-04-19T10:08:53.522Z,19.40
2023-04-19T10:11:22.894Z,18.90
2023-04-19T10:13:57.181Z,19.50
2023-04-19T10:16:24.928Z,20.00
2023-04-19T10:18:53.187Z,20.10
2023-04-19T10:21:21.303Z,19.80
2023-04-19T10:23:49.038Z,19.60
2023-04-19T10:26:16.183Z,19.00
2023-04-19T10:28:43.158Z,18.40
2023-04-19T10:31:13.763Z,18.20
2023-04-19T10:33:42.186Z,18.10
2023-04-19T10:36:11.741Z,18.00
2023-04-19T10:38:55.759Z,17.60
2023-04-19T10:46:59.494Z,17.50
2023-04-19T10:49:29.384Z,17.70
2023-04-19T10:54:42.282Z,18.10
2023-04-19T10:57:11.464Z,18.30
2023-04-19T10:59:40.604Z,18.60
2023-04-19T11:02:23.238Z,18.90
2023-04-19T11:04:53.535Z,18.80
2023-04-19T11:12:54.599Z,16.80
2023-04-19T11:15:25.201Z,16.20
2023-04-19T11:18:08.840Z,16.00
2023-04-19T11:20:42.554Z,15.90
2023-04-19T11:28:46.617Z,15.20
2023-04-19T11:31:13.598Z,15.00
2023-04-19T11:33:40.575Z,15.10
2023-04-19T11:41:42.966Z,14.60
2023-04-19T11:44:22.694Z,14.30
2023-04-19T11:49:46.151Z,14.50
2023-04-19T11:52:21.370Z,14.70
2023-04-19T11:54:48.620Z,14.60
2023-04-19T11:57:15.556Z,14.40
2023-04-19T12:00:05.578Z,14.30
2023-04-19T12:05:24.416Z,14.50
2023-04-19T12:08:08.431Z,14.60
2023-04-19T12:10:36.318Z,14.10
2023-04-19T12:13:18.009Z,13.90
2023-04-19T12:18:51.325Z,14.30
2023-04-19T12:21:30.852Z,14.40
2023-04-19T12:29:42.398Z,14.20
2023-04-19T12:32:10.947Z,14.30
2023-04-19T12:34:37.931Z,14.30
2023-04-19T12:37:04.899Z,14.50
2023-04-19T12:39:31.935Z,14.60
2023-04-19T12:41:58.898Z,14.60
2023-04-19T12:44:25.991Z,14.90
2023-04-19T12:46:57.198Z,14.80
2023-04-19T12:49:24.409Z,14.90
2023-04-19T12:51:51.376Z,14.90
2023-04-19T12:54:18.406Z,14.40
2023-04-19T12:56:45.266Z,14.50
2023-04-19T12:59:12.188Z,14.40
2023-04-19T13:04:23.987Z,13.90
2023-04-19T13:06:51.256Z,13.80
2023-04-19T13:17:38.037Z,13.70
2023-04-19T13:20:06.515Z,14.00
2023-04-19T13:22:33.598Z,14.00
2023-04-19T13:25:00.610Z,13.90
2023-04-19T13:27:27.969Z,14.00
2023-04-19T13:29:56.389Z,14.20
2023-04-19T13:32:23.738Z,14.20
2023-04-19T13:34:50.652Z,14.40
2023-04-19T13:37:17.608Z,14.50
2023-04-19T13:39:44.528Z,14.40
2023-04-19T13:42:12.393Z,14.30
2023-04-19T13:44:39.294Z,14.30
2023-04-19T13:47:06.622Z,14.30
2023-04-19T13:49:33.514Z,14.30
2023-04-19T13:52:00.389Z,14.50
2023-04-19T13:54:27.383Z,14.70
2023-04-19T13:56:54.265Z,14.80
2023-04-19T13:59:21.408Z,14.80
2023-04-19T14:01:48.356Z,14.60
2023-04-19T14:04:15.897Z,14.50
2023-04-19T14:06:43.427Z,14.40
2023-04-19T14:09:10.339Z,14.50
2023-04-19T14:11:38.385Z,14.40
2023-04-19T14:14:05.317Z,14.30
2023-04-19T14:16:32.214Z,14.40
2023-04-19T14:18:59.677Z,14.50
2023-04-19T14:21:27.697Z,14.30
2023-04-19T14:23:55.214Z,14.30
2023-04-19T14:26:22.078Z,14.40
2023-04-19T14:28:48.947Z,14.50
2023-04-19T14:31:15.911Z,14.50
2023-04-19T14:33:42.877Z,14.30
2023-04-19T14:36:09.870Z,14.40
2023-04-19T14:38:36.706Z,14.50
2023-04-19T14:41:03.587Z,14.10
2023-04-19T14:43:30.802Z,13.70
2023-04-19T14:45:57.670Z,13.70
2023-04-19T14:48:25.130Z,13.50
2023-04-19T14:50:51.961Z,13.60
2023-04-19T14:53:18.847Z,13.70
2023-04-19T14:55:45.716Z,13.80
2023-04-19T14:58:12.652Z,13.60
2023-04-19T15:00:39.569Z,13.80
2023-04-19T15:03:06.700Z,13.90
2023-04-19T15:05:36.456Z,14.00
2023-04-19T15:08:03.541Z,13.60
2023-04-19T15:10:30.567Z,13.70
2023-04-19T15:12:58.057Z,13.30
2023-04-19T15:15:24.958Z,12.90
2023-04-19T15:17:51.868Z,12.80
2023-04-19T15:20:18.818Z,12.80
2023-04-19T15:22:45.736Z,13.00
2023-04-19T15:25:12.696Z,13.10
2023-04-19T15:27:39.515Z,13.00
2023-04-19T15:30:07.593Z,13.10
2023-04-19T15:32:36.685Z,13.30
2023-04-19T15:35:04.246Z,13.30
2023-04-19T15:37:31.120Z,13.20
2023-04-19T15:39:57.967Z,13.20
2023-04-19T15:42:24.957Z,12.90
2023-04-19T15:44:51.828Z,12.90
2023-04-19T15:47:18.761Z,12.70
2023-04-19T15:49:47.331Z,12.90
2023-04-19T15:52:14.285Z,12.90
2023-04-19T15:54:41.199Z,12.70
2023-04-19T15:57:08.133Z,12.50
2023-04-19T15:59:35.165Z,12.40
2023-04-19T16:02:02.313Z,12.00
2023-04-19T16:04:31.250Z,12.10
2023-04-19T16:06:59.184Z,12.00
2023-04-19T16:09:26.423Z,12.00
2023-04-19T16:11:53.328Z,12.00
2023-04-19T16:14:20.282Z,12.10
2023-04-19T16:16:48.161Z,12.20
2023-04-19T16:19:15.430Z,12.40
2023-04-19T16:21:42.548Z,12.50
2023-04-19T16:24:09.478Z,12.40
2023-04-19T16:26:36.416Z,12.30
2023-04-19T16:29:03.486Z,12.10
2023-04-19T16:31:30.782Z,12.00
2023-04-19T16:33:57.732Z,12.00
2023-04-19T16:36:24.664Z,11.90
2023-04-19T16:38:51.760Z,11.80
2023-04-19T16:41:18.658Z,11.80
2023-04-19T16:43:45.655Z,11.90
2023-04-19T16:46:12.585Z,11.90
2023-04-19T16:48:39.479Z,11.90
2023-04-19T16:51:06.478Z,12.10
2023-04-19T16:53:33.335Z,12.10
2023-04-19T16:56:00.423Z,11.90
2023-04-19T16:58:27.429Z,11.80
2023-04-19T17:00:58.520Z,11.70
2023-04-19T17:03:25.843Z,11.70
2023-04-19T17:05:52.830Z,11.80
2023-04-19T17:08:21.445Z,11.80
2023-04-19T17:10:48.810Z,11.90
2023-04-19T17:13:15.812Z,11.80
2023-04-19T17:15:42.822Z,11.90
2023-04-19T17:18:09.805Z,11.70
2023-04-19T17:20:36.826Z,11.60
2023-04-19T17:23:03.837Z,11.60
2023-04-19T17:25:30.955Z,11.70
2023-04-19T17:27:58.029Z,11.60
2023-04-19T17:30:25.038Z,11.60
2023-04-19T17:32:52.040Z,11.40
2023-04-19T17:35:19.139Z,11.40
2023-04-19T17:37:46.115Z,11.30
2023-04-19T17:40:13.194Z,11.30
2023-04-19T17:42:40.030Z,11.20
2023-04-19T17:45:11.070Z,11.00
2023-04-19T17:47:39.444Z,11.00
2023-04-19T17:50:13.064Z,10.80
2023-04-19T17:52:40.225Z,10.70
2023-04-19T17:55:08.024Z,10.50
2023-04-19T17:57:35.399Z,10.40
2023-04-19T18:00:06.648Z,10.40
2023-04-19T18:02:34.746Z,10.30
2023-04-19T18:05:02.194Z,10.20
2023-04-19T18:07:29.414Z,10.10
2023-04-19T18:09:56.361Z,10.10
2023-04-19T18:12:23.447Z,10.00
2023-04-19T18:14:50.339Z,9.90
2023-04-19T18:17:17.249Z,9.70
2023-04-19T18:19:44.213Z,9.70
2023-04-19T18:22:11.283Z,9.60
2023-04-19T18:24:40.804Z,9.50
2023-04-19T18:27:07.797Z,9.70
2023-04-19T18:29:34.848Z,9.40
2023-04-19T18:32:01.738Z,9.40
2023-04-19T18:34:28.734Z,9.20
2023-04-19T18:37:01.014Z,9.10
2023-04-19T18:39:28.800Z,9.00
2023-04-19T18:41:57.692Z,9.00
2023-04-19T18:44:49.417Z,8.90
2023-04-19T18:47:12.379Z,8.80
2023-04-19T18:49:39.259Z,8.80
2023-04-19T18:52:06.354Z,8.70
2023-04-19T18:54:33.232Z,8.60
2023-04-19T18:59:31.360Z,8.40
2023-04-19T19:01:58.417Z,8.30
2023-04-19T19:04:46.811Z,8.30
2023-04-19T19:07:33.097Z,8.20
2023-04-19T19:10:01.547Z,8.20
2023-04-19T19:12:29.391Z,8.10
2023-04-19T19:14:56.318Z,8.00
2023-04-19T19:17:24.554Z,7.90
2023-04-19T19:19:51.596Z,7.80
2023-04-19T19:22:27.541Z,7.70
2023-04-19T19:24:55.696Z,7.80
2023-04-19T19:27:22.736Z,7.50
2023-04-19T19:29:49.680Z,7.50
2023-04-19T19:32:16.698Z,7.30
2023-04-19T19:34:54.677Z,7.10
2023-04-19T19:37:23.383Z,6.90
2023-04-19T19:39:51.964Z,6.70
2023-04-19T19:42:19.784Z,6.60
2023-04-19T19:44:46.811Z,6.50
2023-04-19T19:47:15.328Z,6.60
2023-04-19T19:50:05.718Z,6.30
2023-04-19T19:52:32.096Z,6.30
2023-04-19T19:55:00.181Z,6.20
2023-04-19T20:00:13.972Z,6.00
2023-04-19T20:02:55.076Z,5.90
2023-04-19T20:05:24.187Z,5.90
2023-04-19T20:10:21.438Z,5.90
2023-04-19T20:12:48.355Z,5.90
2023-04-19T20:15:15.371Z,5.90
2023-04-19T20:17:43.743Z,5.80
2023-04-19T20:20:11.481Z,5.80
2023-04-19T20:22:38.658Z,5.70
2023-04-19T20:25:06.632Z,5.70
2023-04-19T20:27:33.796Z,5.70
2023-04-19T20:30:00.959Z,5.60
2023-04-19T20:32:28.064Z,5.60
2023-04-19T20:34:54.958Z,5.60
2023-04-19T20:37:22.529Z,5.50
2023-04-19T20:39:49.450Z,5.60
2023-04-19T20:42:16.867Z,5.60
2023-04-19T20:44:44.427Z,5.60
2023-04-19T20:47:13.228Z,5.60
2023-04-19T20:49:40.877Z,5.50
2023-04-19T20:52:07.822Z,5.60
2023-04-19T20:54:36.524Z,5.60
2023-04-19T20:57:04.602Z,5.50
2023-04-19T20:59:31.674Z,5.50
2023-04-19T21:02:00.069Z,5.50
2023-04-19T21:04:27.393Z,5.40
2023-04-19T21:06:54.396Z,5.50
2023-04-19T21:09:21.482Z,5.50
2023-04-19T21:11:48.490Z,5.70
2023-04-19T21:14:15.430Z,5.60
2023-04-19T21:16:42.252Z,5.70
2023-04-19T21:19:09.085Z,5.70
2023-04-19T21:21:35.985Z,5.70
2023-04-19T21:24:02.876Z,5.90
2023-04-19T21:26:29.795Z,5.80
2023-04-19T21:28:56.612Z,5.70
2023-04-19T21:31:23.540Z,5.80
2023-04-19T21:33:50.501Z,5.80
2023-04-19T21:36:17.412Z,5.80
2023-04-19T21:38:44.440Z,5.80
2023-04-19T21:41:11.382Z,5.80
2023-04-19T21:43:38.383Z,5.70
2023-04-19T21:46:05.467Z,5.80
2023-04-19T21:48:32.895Z,5.60
2023-04-19T21:51:01.427Z,5.50
2023-04-19T21:53:28.302Z,5.50
2023-04-19T21:55:55.219Z,5.50
2023-04-19T21:58:22.354Z,5.50
2023-04-19T22:00:49.382Z,5.40
2023-04-19T22:03:16.542Z,5.40
2023-04-19T22:05:46.548Z,5.40
2023-04-19T22:08:13.505Z,5.40
2023-04-19T22:10:41.119Z,5.40
2023-04-19T22:13:08.725Z,5.30
2023-04-19T22:15:37.342Z,5.30
2023-04-19T22:18:05.102Z,5.30
2023-04-19T22:20:33.758Z,5.30
2023-04-19T22:23:00.935Z,5.20
2023-04-19T22:25:27.915Z,5.10
2023-04-19T22:27:55.211Z,5.10
2023-04-19T22:30:22.087Z,5.10
2023-04-19T22:32:49.017Z,5.10
2023-04-19T22:35:16.074Z,5.10
2023-04-19T22:37:43.039Z,5.10
2023-04-19T22:40:10.939Z,5.20
2023-04-19T22:42:37.918Z,5.20
2023-04-19T22:45:05.664Z,5.30
2023-04-19T22:47:33.110Z,5.30
2023-04-19T22:49:59.993Z,5.30
2023-04-19T22:52:27.767Z,5.30
2023-04-19T22:54:54.759Z,5.20
2023-04-19T22:57:21.610Z,5.20
2023-04-19T22:59:48.959Z,5.20
2023-04-19T23:02:15.875Z,5.30
2023-04-19T23:04:44.766Z,5.10
2023-04-19T23:07:12.032Z,5.00
2023-04-19T23:09:39.339Z,5.00
2023-04-19T23:12:08.228Z,5.10
2023-04-19T23:14:38.680Z,5.10
2023-04-19T23:17:06.128Z,5.20
2023-04-19T23:19:33.154Z,5.20
2023-04-19T23:22:00.038Z,5.20
2023-04-19T23:24:26.955Z,5.20
2023-04-19T23:26:53.812Z,5.30
2023-04-19T23:29:20.652Z,5.30
2023-04-19T23:31:47.534Z,5.40
2023-04-19T23:39:26.835Z,5.50
2023-04-19T23:41:53.830Z,5.50
2023-04-19T23:44:21.465Z,5.50
2023-04-19T23:46:48.486Z,5.50
2023-04-19T23:49:15.549Z,5.50
2023-04-19T23:51:42.821Z,5.50
2023-04-19T23:54:09.671Z,5.50
2023-04-19T23:56:36.559Z,5.50
2023-04-19T23:59:03.430Z,5.60
